createdAt,value
2023-04-20T00:00:28.078Z,43.18
2023-04-20T00:02:55.598Z,43.54
2023-04-20T00:05:23.269Z,44.32
2023-04-20T00:07:50.767Z,45.03
2023-04-20T00:10:18.149Z,44.85
2023-04-20T00:12:45.654Z,45.61
2023-04-20T00:15:13.105Z,45.50
2023-04-20T00:17:40.587Z,45.93
2023-04-20T00:20:09.035Z,45.93
2023-04-20T00:22:36.963Z,46.48
2023-04-20T00:25:04.571Z,46.36
2023-04-20T00:27:31.963Z,46.07
2023-04-20T00:29:59.460Z,45.79
2023-04-20T00:32:28.404Z,46.08
2023-04-20T00:34:55.907Z,46.05
2023-04-20T00:37:25.542Z,46.35
2023-04-20T00:39:53.144Z,46.96
2023-04-20T00:42:20.575Z,47.66
2023-04-20T00:44:47.976Z,47.69
2023-04-20T00:47:15.480Z,48.64
2023-04-20T00:49:42.977Z,50.28
2023-04-20T00:52:10.588Z,51.42
2023-04-20T00:54:37.999Z,52.27
2023-04-20T00:57:05.750Z,53.42
2023-04-20T00:59:33.391Z,54.47
2023-04-20T01:02:00.967Z,56.37
2023-04-20T01:04:28.655Z,55.52
2023-04-20T01:06:56.194Z,55.94
2023-04-20T01:09:23.775Z,57.15
2023-04-20T01:11:51.172Z,56.67
2023-04-20T01:14:18.598Z,56.28
2023-04-20T01:16:47.210Z,57.77
2023-04-20T01:19:14.935Z,58.29
2023-04-20T01:21:43.074Z,59.23
2023-04-20T01:24:10.493Z,58.34
2023-04-20T01:26:37.859Z,58.84
2023-04-20T01:29:05.278Z,58.93
2023-04-20T01:31:32.762Z,58.50
2023-04-20T01:34:00.265Z,58.59
2023-04-20T01:36:28.112Z,60.89
2023-04-20T01:38:55.484Z,59.47
2023-04-20T01:41:22.891Z,60.48
2023-04-20T01:43:50.397Z,62.02
2023-04-20T01:46:17.918Z,62.76
2023-04-20T01:48:45.327Z,62.85
2023-04-20T01:51:12.778Z,64.58
2023-04-20T01:53:40.186Z,66.06
2023-04-20T01:56:07.576Z,68.13
2023-04-20T01:58:34.988Z,68.72
2023-04-20T02:01:03.249Z,70.26
2023-04-20T02:03:30.950Z,69.80
2023-04-20T02:05:58.669Z,70.68
2023-04-20T02:08:26.117Z,72.25
2023-04-20T02:10:53.554Z,72.56
2023-04-20T02:13:21.536Z,74.03
2023-04-20T02:15:48.911Z,73.99
2023-04-20T02:18:16.562Z,74.97
2023-04-20T02:20:44.931Z,76.19
2023-04-20T02:23:12.734Z,76.63
2023-04-20T02:25:40.114Z,77.07
2023-04-20T02:28:07.590Z,78.02
2023-04-20T02:30:35.010Z,78.98
2023-04-20T02:33:02.541Z,78.29
2023-04-20T02:35:29.904Z,79.70
2023-04-20T02:37:57.282Z,81.20
2023-04-20T02:40:24.756Z,81.00
2023-04-20T02:42:52.289Z,83.33
2023-04-20T02:45:19.683Z,82.59
2023-04-20T02:47:47.513Z,83.16
2023-04-20T02:50:15.479Z,84.50
2023-04-20T02:52:42.921Z,85.72
2023-04-20T02:55:10.586Z,86.46
2023-04-20T02:57:38.052Z,88.67
2023-04-20T03:00:05.715Z,89.00
2023-04-20T03:02:33.303Z,88.46
2023-04-20T03:05:00.838Z,88.92
2023-04-20T03:07:28.789Z,88.11
2023-04-20T03:09:56.229Z,88.73
2023-04-20T03:12:23.664Z,88.64
2023-04-20T03:14:51.218Z,88.15
2023-04-20T03:17:18.664Z,87.30
2023-04-20T03:19:46.476Z,86.61
2023-04-20T03:22:13.905Z,86.86
2023-04-20T03:24:41.383Z,86.44
2023-04-20T03:27:08.805Z,86.15
2023-04-20T03:29:36.258Z,84.04
2023-04-20T03:32:04.252Z,83.31
2023-04-20T03:34:31.756Z,83.00
2023-04-20T03:36:59.166Z,81.81
2023-04-20T03:39:26.527Z,82.55
2023-04-20T03:41:53.941Z,81.62
2023-04-20T03:44:21.365Z,80.90
2023-04-20T03:46:48.798Z,81.73
2023-04-20T03:49:16.559Z,81.29
2023-04-20T03:51:44.108Z,81.75
2023-04-20T03:54:11.707Z,82.08
2023-04-20T03:56:39.197Z,81.77
2023-04-20T03:59:06.635Z,82.83
2023-04-20T04:01:34.142Z,83.33
2023-04-20T04:04:01.670Z,83.56
2023-04-20T04:06:29.338Z,82.91
2023-04-20T04:08:56.718Z,84.18
2023-04-20T04:11:25.499Z,84.26
2023-04-20T04:13:52.885Z,82.96
2023-04-20T04:16:20.291Z,82.99
2023-04-20T04:18:48.018Z,83.40
2023-04-20T04:21:15.603Z,84.15
2023-04-20T04:23:43.176Z,83.94
2023-04-20T04:26:12.103Z,85.47
2023-04-20T04:28:40.347Z,84.55
2023-04-20T04:31:09.801Z,84.95
2023-04-20T04:33:37.292Z,86.29
2023-04-20T04:36:05.464Z,86.40
2023-04-20T04:38:33.372Z,85.09
2023-04-20T04:41:00.778Z,84.30
2023-04-20T04:43:28.174Z,83.55
2023-04-20T04:45:55.589Z,82.04
2023-04-20T04:48:23.211Z,81.33
2023-04-20T04:50:50.664Z,82.84
2023-04-20T04:53:18.130Z,82.45
2023-04-20T04:55:46.572Z,82.13
2023-04-20T04:58:13.955Z,84.30
2023-04-20T05:00:41.520Z,83.96
2023-04-20T05:03:09.087Z,86.15
2023-04-20T05:05:36.613Z,86.04
2023-04-20T05:08:04.031Z,87.32
2023-04-20T05:10:31.503Z,87.70
2023-04-20T05:13:00.409Z,87.27
2023-04-20T05:15:27.895Z,86.65
2023-04-20T05:17:55.368Z,88.55
2023-04-20T05:20:22.855Z,88.78
2023-04-20T05:22:50.268Z,88.51
2023-04-20T05:25:17.719Z,88.08
2023-04-20T05:27:45.211Z,90.53
2023-04-20T05:30:21.239Z,90.34
2023-04-20T05:32:51.934Z,90.50
2023-04-20T05:35:20.143Z,92.40
2023-04-20T05:37:48.303Z,91.34
2023-04-20T05:40:15.917Z,91.99
2023-04-20T05:42:43.386Z,91.97
2023-04-20T05:45:11.219Z,93.87
2023-04-20T05:47:38.700Z,91.91
2023-04-20T05:50:06.457Z,91.80
2023-04-20T05:52:33.885Z,92.78
2023-04-20T05:55:01.323Z,90.71
2023-04-20T05:57:28.735Z,90.65
2023-04-20T05:59:56.659Z,91.66
2023-04-20T06:02:24.213Z,92.00
2023-04-20T06:04:52.133Z,90.82
2023-04-20T06:07:19.695Z,90.62
2023-04-20T06:09:47.135Z,90.28
2023-04-20T06:12:14.563Z,89.81
2023-04-20T06:14:42.016Z,89.39
2023-04-20T06:17:09.439Z,88.68
2023-04-20T06:19:36.915Z,88.33
2023-04-20T06:22:08.371Z,88.54
2023-04-20T06:24:36.167Z,88.83
2023-04-20T06:27:03.695Z,87.68
2023-04-20T06:29:31.270Z,91.61
2023-04-20T06:31:58.716Z,92.57
2023-04-20T06:34:26.207Z,91.96
2023-04-20T06:36:55.888Z,92.64
2023-04-20T06:39:23.426Z,93.32
2023-04-20T06:41:50.793Z,92.88
2023-04-20T06:44:18.250Z,93.10
2023-04-20T06:46:45.743Z,95.96
2023-04-20T06:49:13.168Z,97.50
2023-04-20T06:51:40.626Z,100.00
2023-04-20T06:54:08.270Z,100.00
2023-04-20T06:56:35.856Z,100.00
2023-04-20T06:59:03.439Z,100.00
2023-04-20T07:01:30.977Z,100.00
2023-04-20T07:03:58.621Z,100.00
2023-04-20T07:06:27.527Z,100.00
2023-04-20T07:08:55.060Z,100.00
2023-04-20T07:11:22.482Z,100.00
2023-04-20T07:13:49.895Z,100.00
2023-04-20T07:16:17.449Z,100.00
2023-04-20T07:18:44.959Z,100.00
2023-04-20T07:21:12.465Z,100.00
2023-04-20T07:23:40.108Z,100.00
2023-04-20T07:26:07.965Z,100.00
2023-04-20T07:28:35.371Z,100.00
2023-04-20T07:31:02.864Z,100.00
2023-04-20T07:33:32.081Z,100.00
2023-04-20T07:36:00.212Z,100.00
2023-04-20T07:38:27.865Z,100.00
2023-04-20T07:40:55.289Z,100.00
2023-04-20T07:43:22.760Z,100.00
2023-04-20T07:45:50.200Z,100.00
2023-04-20T07:48:17.750Z,100.00
2023-04-20T07:50:45.599Z,100.00
2023-04-20T07:53:14.151Z,100.00
2023-04-20T07:55:41.652Z,100.00
2023-04-20T07:58:09.066Z,100.00
2023-04-20T08:00:36.706Z,100.00
2023-04-20T08:03:04.317Z,100.00
2023-04-20T08:05:32.142Z,100.00
2023-04-20T08:07:59.916Z,100.00
2023-04-20T08:10:27.292Z,100.00
2023-04-20T08:12:54.778Z,100.00
2023-04-20T08:15:22.249Z,100.00
2023-04-20T08:17:49.693Z,100.00
2023-04-20T08:20:17.205Z,100.00
2023-04-20T08:22:44.641Z,100.00
2023-04-20T08:25:12.256Z,100.00
2023-04-20T08:27:39.658Z,100.00
2023-04-20T08:30:07.879Z,100.00
2023-04-20T08:32:35.426Z,100.00
2023-04-20T08:35:03.393Z,100.00
2023-04-20T08:37:32.725Z,100.00
2023-04-20T08:40:00.560Z,100.00
2023-04-20T08:42:28.056Z,100.00
2023-04-20T08:44:55.438Z,100.00
2023-04-20T08:47:22.983Z,100.00
2023-04-20T08:49:53.958Z,100.00
2023-04-20T08:52:21.322Z,100.00
2023-04-20T08:54:56.158Z,100.00
2023-04-20T08:57:24.736Z,100.00
2023-04-20T08:59:52.162Z,100.00
2023-04-20T09:02:19.864Z,100.00
2023-04-20T09:04:49.575Z,100.00
2023-04-20T09:07:21.143Z,100.00
2023-04-20T09:09:55.816Z,100.00
2023-04-20T09:12:24.633Z,100.00
2023-04-20T09:14:52.297Z,100.00
2023-04-20T09:17:31.326Z,100.00
2023-04-20T09:19:58.815Z,100.00
2023-04-20T09:22:33.345Z,100.00
2023-04-20T09:25:01.635Z,100.00
2023-04-20T09:27:29.170Z,100.00
2023-04-20T09:30:00.232Z,100.00
2023-04-20T09:32:29.351Z,100.00
2023-04-20T09:34:58.007Z,100.00
2023-04-20T09:37:25.757Z,100.00
2023-04-20T09:39:56.428Z,100.00
2023-04-20T09:42:28.475Z,100.00
2023-04-20T09:44:56.769Z,100.00
2023-04-20T09:47:25.944Z,100.00
2023-04-20T09:49:54.216Z,100.00
2023-04-20T09:52:21.823Z,100.00
2023-04-20T09:54:49.874Z,100.00
2023-04-20T09:57:17.479Z,100.00
2023-04-20T09:59:45.283Z,100.00
2023-04-20T10:02:13.311Z,100.00
2023-04-20T10:04:56.799Z,100.00
2023-04-20T10:07:25.100Z,100.00
2023-04-20T10:10:03.251Z,100.00
2023-04-20T10:12:30.613Z,100.00
2023-04-20T10:14:58.160Z,100.00
2023-04-20T10:17:32.603Z,100.00
2023-04-20T10:20:00.426Z,100.00
2023-04-20T10:22:32.979Z,100.00
2023-04-20T10:25:01.231Z,100.00
2023-04-20T10:27:28.796Z,100.00
2023-04-20T10:29:56.309Z,100.00
2023-04-20T10:32:25.192Z,100.00
2023-04-20T10:35:06.332Z,100.00
2023-04-20T10:37:34.144Z,100.00
2023-04-20T10:40:02.241Z,100.00
2023-04-20T10:42:30.384Z,100.00
2023-04-20T10:44:57.800Z,100.00
2023-04-20T10:47:30.067Z,100.00
2023-04-20T10:50:07.736Z,100.00
2023-04-20T10:52:36.136Z,100.00
2023-04-20T10:55:03.815Z,100.00
2023-04-20T10:57:31.191Z,100.00
2023-04-20T10:59:58.578Z,100.00
2023-04-20T11:02:26.238Z,99.79
2023-04-20T11:05:00.844Z,100.00
2023-04-20T11:07:28.404Z,100.00
2023-04-20T11:09:56.724Z,99.60
2023-04-20T11:12:24.129Z,100.00
2023-04-20T11:15:00.377Z,100.00
2023-04-20T11:17:37.777Z,100.00
2023-04-20T11:20:16.963Z,100.00
2023-04-20T11:22:44.941Z,100.00
2023-04-20T11:25:13.399Z,100.00
2023-04-20T11:27:41.283Z,99.03
2023-04-20T11:30:10.169Z,90.07
2023-04-20T11:32:38.206Z,92.95
2023-04-20T11:35:07.809Z,89.64
2023-04-20T11:37:46.416Z,91.99
2023-04-20T11:40:15.166Z,92.04
2023-04-20T11:42:42.718Z,87.74
2023-04-20T11:45:11.565Z,85.34
2023-04-20T11:47:40.862Z,81.08
2023-04-20T11:50:09.262Z,77.23
2023-04-20T11:52:36.847Z,74.78
2023-04-20T11:55:04.664Z,75.75
2023-04-20T11:57:32.009Z,74.78
2023-04-20T11:59:59.751Z,71.23
2023-04-20T12:02:27.304Z,70.51
2023-04-20T12:04:54.957Z,67.27
2023-04-20T12:07:23.323Z,65.18
2023-04-20T12:09:50.716Z,67.08
2023-04-20T12:12:18.834Z,81.93
2023-04-20T12:14:46.381Z,85.81
2023-04-20T12:17:17.962Z,85.47
2023-04-20T12:19:45.422Z,82.70
2023-04-20T12:22:12.976Z,79.43
2023-04-20T12:24:40.440Z,75.29
2023-04-20T12:27:07.849Z,73.50
2023-04-20T12:29:35.272Z,72.69
2023-04-20T12:32:02.916Z,73.70
2023-04-20T12:34:30.730Z,71.47
2023-04-20T12:36:58.268Z,70.77
2023-04-20T12:39:25.705Z,74.26
2023-04-20T12:41:53.108Z,74.87
2023-04-20T12:44:20.934Z,76.46
2023-04-20T12:46:48.537Z,75.47
2023-04-20T12:49:16.145Z,75.92
2023-04-20T12:51:43.696Z,74.90
2023-04-20T12:54:11.926Z,75.86
2023-04-20T12:56:39.389Z,75.52
2023-04-20T12:59:06.848Z,73.30
2023-04-20T13:01:34.398Z,73.10
2023-04-20T13:04:02.013Z,70.59
2023-04-20T13:06:29.647Z,69.46
2023-04-20T13:08:57.085Z,69.21
2023-04-20T13:11:26.673Z,66.53
2023-04-20T13:13:54.682Z,68.51
2023-04-20T13:16:22.129Z,70.00
2023-04-20T13:18:49.595Z,68.01
2023-04-20T13:21:17.001Z,68.35
2023-04-20T13:23:44.387Z,70.20
2023-04-20T13:26:11.925Z,70.44
2023-04-20T13:28:39.323Z,72.56
2023-04-20T13:31:06.710Z,74.14
2023-04-20T13:33:34.442Z,73.92
2023-04-20T13:36:01.901Z,72.90
2023-04-20T13:38:29.356Z,73.89
2023-04-20T13:40:56.839Z,75.44
2023-04-20T13:43:24.210Z,74.24
2023-04-20T13:45:51.644Z,74.71
2023-04-20T13:48:19.072Z,73.03
2023-04-20T13:50:47.364Z,72.45
2023-04-20T13:53:14.772Z,71.16
2023-04-20T13:55:42.294Z,70.48
2023-04-20T13:58:09.717Z,67.72
2023-04-20T14:00:37.213Z,66.84
2023-04-20T14:03:06.094Z,66.39
2023-04-20T14:05:33.664Z,65.85
2023-04-20T14:08:01.604Z,64.29
2023-04-20T14:10:29.683Z,63.67
2023-04-20T14:12:57.346Z,65.69
2023-04-20T14:15:24.746Z,67.87
2023-04-20T14:17:53.009Z,70.03
2023-04-20T14:20:20.603Z,69.31
2023-04-20T14:22:48.057Z,69.51
2023-04-20T14:25:15.496Z,68.43
2023-04-20T14:27:42.945Z,66.82
2023-04-20T14:30:11.026Z,64.80
2023-04-20T14:32:38.454Z,67.72
2023-04-20T14:35:06.247Z,64.08
2023-04-20T14:37:33.644Z,66.38
2023-04-20T14:40:01.223Z,66.61
2023-04-20T14:42:28.625Z,63.81
2023-04-20T14:44:56.017Z,65.94
2023-04-20T14:47:23.524Z,65.36
2023-04-20T14:49:50.964Z,66.54
2023-04-20T14:52:18.611Z,65.90
2023-04-20T14:54:46.107Z,67.19
2023-04-20T14:57:13.496Z,68.03
2023-04-20T14:59:42.149Z,66.19
2023-04-20T15:02:09.610Z,63.89
2023-04-20T15:04:37.290Z,63.84
2023-04-20T15:07:05.024Z,61.93
2023-04-20T15:09:32.724Z,60.88
2023-04-20T15:12:00.257Z,60.49
2023-04-20T15:14:27.648Z,58.86
2023-04-20T15:16:55.255Z,58.23
2023-04-20T15:19:22.822Z,56.44
2023-04-20T15:21:50.570Z,58.24
2023-04-20T15:24:18.153Z,61.98
2023-04-20T15:26:45.866Z,62.73
2023-04-20T15:29:13.281Z,65.32
2023-04-20T15:31:43.153Z,63.60
2023-04-20T15:34:11.301Z,63.88
2023-04-20T15:36:38.809Z,62.33
2023-04-20T15:39:06.300Z,60.79
2023-04-20T15:41:33.929Z,59.52
2023-04-20T15:44:01.353Z,58.82
2023-04-20T15:46:28.845Z,58.18
2023-04-20T15:48:56.310Z,57.88
2023-04-20T15:51:24.942Z,59.97
2023-04-20T15:53:52.761Z,60.22
2023-04-20T15:56:22.574Z,60.77
2023-04-20T15:58:50.391Z,58.90
2023-04-20T16:01:18.673Z,60.49
2023-04-20T16:03:46.880Z,58.17
2023-04-20T16:06:14.540Z,56.81
2023-04-20T16:08:42.287Z,58.06
2023-04-20T16:11:09.728Z,57.73
2023-04-20T16:13:37.095Z,59.74
2023-04-20T16:16:04.579Z,58.04
2023-04-20T16:18:33.119Z,57.60
2023-04-20T16:21:00.584Z,54.18
2023-04-20T16:23:28.103Z,54.44
2023-04-20T16:25:55.962Z,55.39
2023-04-20T16:28:23.379Z,56.26
2023-04-20T16:30:50.960Z,56.40
2023-04-20T16:33:18.833Z,57.33
2023-04-20T16:35:46.261Z,58.21
2023-04-20T16:38:13.676Z,58.82
2023-04-20T16:40:42.571Z,56.79
2023-04-20T16:43:10.180Z,55.75
2023-04-20T16:45:38.935Z,57.50
2023-04-20T16:48:07.980Z,61.63
2023-04-20T16:50:37.394Z,61.62
2023-04-20T16:53:05.627Z,60.37
2023-04-20T16:55:33.042Z,58.70
2023-04-20T16:58:00.986Z,56.33
2023-04-20T17:00:29.138Z,55.79
2023-04-20T17:02:56.926Z,55.40
2023-04-20T17:05:24.575Z,55.94
2023-04-20T17:07:51.998Z,56.95
2023-04-20T17:10:19.532Z,55.77
2023-04-20T17:12:46.943Z,55.91
2023-04-20T17:15:14.466Z,53.94
2023-04-20T17:17:42.233Z,54.56
2023-04-20T17:20:10.004Z,54.62
2023-04-20T17:22:37.407Z,54.40
2023-04-20T17:25:07.111Z,54.09
2023-04-20T17:27:35.350Z,53.86
2023-04-20T17:30:02.767Z,53.96
2023-04-20T17:32:30.202Z,56.37
2023-04-20T17:34:58.718Z,55.29
2023-04-20T17:37:26.365Z,55.35
2023-04-20T17:39:53.871Z,55.39
2023-04-20T17:42:21.415Z,54.45
2023-04-20T17:44:48.839Z,56.43
2023-04-20T17:47:16.298Z,55.09
2023-04-20T17:49:43.871Z,55.65
2023-04-20T17:52:15.023Z,55.69
2023-04-20T17:54:42.408Z,56.83
2023-04-20T17:57:09.877Z,58.19
2023-04-20T17:59:37.304Z,59.05
2023-04-20T18:02:04.882Z,59.74
2023-04-20T18:04:32.561Z,59.04
2023-04-20T18:07:00.025Z,58.86
2023-04-20T18:09:27.507Z,60.34
2023-04-20T18:11:54.929Z,60.03
2023-04-20T18:14:22.332Z,59.56
2023-04-20T18:16:51.852Z,60.81
2023-04-20T18:19:19.484Z,61.42
2023-04-20T18:21:46.916Z,60.50
2023-04-20T18:24:14.272Z,60.86
2023-04-20T18:26:41.690Z,59.71
2023-04-20T18:29:09.153Z,58.71
2023-04-20T18:31:36.624Z,57.84
2023-04-20T18:34:04.941Z,56.54
2023-04-20T18:36:32.683Z,55.41
2023-04-20T18:39:00.132Z,54.27
2023-04-20T18:41:29.375Z,54.12
2023-04-20T18:43:56.834Z,54.19
2023-04-20T18:46:25.579Z,54.76
2023-04-20T18:48:53.074Z,53.64
2023-04-20T18:51:20.528Z,54.03
2023-04-20T18:53:47.917Z,54.87
2023-04-20T18:56:15.424Z,54.66
2023-04-20T18:58:42.841Z,54.88
2023-04-20T19:01:10.826Z,54.97
2023-04-20T19:03:38.422Z,54.61
2023-04-20T19:06:05.996Z,55.31
2023-04-20T19:08:33.918Z,56.19
2023-04-20T19:11:01.394Z,55.75
2023-04-20T19:13:29.105Z,56.36
2023-04-20T19:15:58.132Z,57.01
2023-04-20T19:18:28.855Z,56.41
2023-04-20T19:20:56.387Z,56.45
2023-04-20T19:23:23.825Z,56.28
2023-04-20T19:25:51.272Z,56.46
2023-04-20T19:28:18.638Z,56.58
2023-04-20T19:30:46.267Z,57.84
2023-04-20T19:33:13.718Z,60.51
2023-04-20T19:35:42.135Z,61.63
2023-04-20T19:38:09.510Z,62.35
2023-04-20T19:40:36.941Z,62.27
2023-04-20T19:43:04.333Z,61.61
2023-04-20T19:45:31.767Z,66.82
2023-04-20T19:47:59.396Z,69.73
2023-04-20T19:50:26.904Z,73.04
2023-04-20T19:52:54.328Z,74.52
2023-04-20T19:55:21.779Z,76.84
2023-04-20T19:57:49.143Z,76.83
2023-04-20T20:00:16.670Z,78.12
2023-04-20T20:02:44.210Z,80.04
2023-04-20T20:05:11.692Z,80.42
2023-04-20T20:07:39.288Z,82.64
2023-04-20T20:10:06.883Z,82.68
2023-04-20T20:12:34.354Z,82.78
2023-04-20T20:15:03.537Z,83.12
2023-04-20T20:17:30.998Z,84.54
2023-04-20T20:19:58.382Z,87.22
2023-04-20T20:22:25.735Z,87.76
2023-04-20T20:24:54.650Z,87.04
2023-04-20T20:27:22.384Z,88.56
2023-04-20T20:29:49.784Z,88.88
2023-04-20T20:32:17.137Z,88.57
2023-04-20T20:34:44.560Z,89.39
2023-04-20T20:37:12.002Z,90.42
2023-04-20T20:39:39.717Z,89.73
2023-04-20T20:42:09.162Z,92.67
2023-04-20T20:44:38.812Z,92.24
2023-04-20T20:47:06.491Z,93.74
2023-04-20T20:49:34.013Z,92.07
2023-04-20T20:52:02.015Z,93.56
2023-04-20T20:54:29.432Z,93.15
2023-04-20T20:56:57.568Z,94.06
2023-04-20T20:59:24.989Z,94.41
2023-04-20T21:01:52.465Z,96.43
2023-04-20T21:04:20.152Z,95.75
2023-04-20T21:06:47.603Z,94.66
2023-04-20T21:09:15.463Z,96.01
2023-04-20T21:11:43.047Z,96.00
2023-04-20T21:14:10.597Z,94.27
2023-04-20T21:16:38.053Z,95.14
2023-04-20T21:19:05.488Z,95.33
2023-04-20T21:21:33.441Z,97.42
2023-04-20T21:24:00.874Z,98.96
2023-04-20T21:26:28.396Z,96.62
2023-04-20T21:28:55.870Z,96.80
2023-04-20T21:31:23.348Z,98.43
2023-04-20T21:33:50.821Z,99.16
2023-04-20T21:36:18.249Z,100.00
2023-04-20T21:38:45.646Z,100.00
2023-04-20T21:41:13.061Z,100.00
2023-04-20T21:43:42.284Z,100.00
2023-04-20T21:46:14.922Z,100.00
2023-04-20T21:48:42.727Z,100.00
2023-04-20T21:51:10.096Z,100.00
2023-04-20T21:53:37.498Z,100.00
2023-04-20T21:56:04.887Z,100.00
2023-04-20T21:58:32.263Z,100.00
2023-04-20T22:00:59.685Z,100.00
2023-04-20T22:03:27.308Z,100.00
2023-04-20T22:05:54.845Z,100.00
2023-04-20T22:08:22.918Z,100.00
2023-04-20T22:10:51.019Z,100.00
2023-04-20T22:13:18.374Z,100.00
2023-04-20T22:15:47.224Z,100.00
2023-04-20T22:18:14.874Z,100.00
2023-04-20T22:20:42.323Z,100.00
2023-04-20T22:23:09.698Z,100.00
2023-04-20T22:25:37.092Z,100.00
2023-04-20T22:28:04.485Z,100.00
2023-04-20T22:30:31.888Z,100.00
2023-04-20T22:32:59.312Z,100.00
2023-04-20T22:35:26.857Z,100.00
2023-04-20T22:37:54.224Z,100.00
2023-04-20T22:40:21.655Z,100.00
2023-04-20T22:42:49.217Z,100.00
2023-04-20T22:45:19.582Z,100.00
2023-04-20T22:47:47.525Z,100.00
2023-04-20T22:50:15.069Z,100.00
2023-04-20T22:52:42.458Z,100.00
2023-04-20T22:55:10.595Z,100.00
2023-04-20T22:57:39.032Z,100.00
2023-04-20T23:00:10.571Z,100.00
2023-04-20T23:02:38.513Z,100.00
2023-04-20T23:05:06.824Z,100.00
2023-04-20T23:07:34.275Z,100.00
2023-04-20T23:10:01.896Z,100.00
2023-04-20T23:12:30.028Z,100.00
2023-04-20T23:15:00.579Z,100.00
2023-04-20T23:17:28.885Z,100.00
2023-04-20T23:19:56.591Z,100.00
2023-04-20T23:22:24.118Z,100.00
2023-04-20T23:24:51.600Z,100.00
2023-04-20T23:27:19.097Z,100.00
2023-04-20T23:29:46.470Z,100.00
2023-04-20T23:32:13.951Z,100.00
2023-04-20T23:34:41.418Z,100.00
2023-04-20T23:37:08.788Z,100.00
2023-04-20T23:39:39.566Z,100.00
2023-04-20T23:42:06.912Z,100.00
2023-04-20T23:44:34.261Z,100.00
2023-04-20T23:47:01.650Z,100.00
2023-04-20T23:49:29.157Z,100.00
2023-04-20T23:51:56.601Z,100.00
2023-04-20T23:54:23.947Z,100.00
2023-04-20T23:56:51.504Z,100.00
2023-04-20T23:59:19.257Z,100.00
